sensor_id;sensor_type;location;lat;lon;timestamp;temperature;humidity
61412;DHT22;47278;49.732;7.690;2023-04-12T00:01:43;8.10;99.90
61412;DHT22;47278;49.732;7.690;2023-04-12T00:04:09;8.10;99.90
61412;DHT22;47278;49.732;7.690;2023-04-12T00:06:35;8.10;99.90
61412;DHT22;47278;49.732;7.690;2023-04-12T00:09:01;8.10;99.90
61412;DHT22;47278;49.732;7.690;2023-04-12T00:11:30;8.10;99.90
61412;DHT22;47278;49.732;7.690;2023-04-12T00:13:56;8.10;99.90
61412;DHT22;47278;49.732;7.690;2023-04-12T00:16:22;8.10;99.90
61412;DHT22;47278;49.732;7.690;2023-04-12T00:18:49;8.10;99.90
61412;DHT22;47278;49.732;7.690;2023-04-12T00:21:16;8.10;99.90
61412;DHT22;47278;49.732;7.690;2023-04-12T00:23:47;8.00;99.90
61412;DHT22;47278;49.732;7.690;2023-04-12T00:26:14;8.10;99.90
61412;DHT22;47278;49.732;7.690;2023-04-12T00:28:41;8.10;99.90
61412;DHT22;47278;49.732;7.690;2023-04-12T00:31:07;8.10;99.90
61412;DHT22;47278;49.732;7.690;2023-04-12T00:33:33;8.20;99.90
61412;DHT22;47278;49.732;7.690;2023-04-12T00:36:00;8.20;99.90
61412;DHT22;47278;49.732;7.690;2023-04-12T00:38:25;8.20;99.90
61412;DHT22;47278;49.732;7.690;2023-04-12T00:40:51;8.20;99.90
61412;DHT22;47278;49.732;7.690;2023-04-12T00:43:17;8.20;99.90
61412;DHT22;47278;49.732;7.690;2023-04-12T00:45:45;8.10;99.90
61412;DHT22;47278;49.732;7.690;2023-04-12T00:48:11;8.10;99.90
61412;DHT22;47278;49.732;7.690;2023-04-12T00:50:38;8.10;99.90
61412;DHT22;47278;49.732;7.690;2023-04-12T00:53:06;8.00;99.90
61412;DHT22;47278;49.732;7.690;2023-04-12T00:55:35;8.00;99.90
61412;DHT22;47278;49.732;7.690;2023-04-12T00:58:01;8.10;99.90
61412;DHT22;47278;49.732;7.690;2023-04-12T01:00:27;8.00;99.90
61412;DHT22;47278;49.732;7.690;2023-04-12T01:02:53;8.10;99.90
61412;DHT22;47278;49.732;7.690;2023-04-12T01:05:21;8.10;99.90
61412;DHT22;47278;49.732;7.690;2023-04-12T01:13:40;8.20;99.90
61412;DHT22;47278;49.732;7.690;2023-04-12T01:16:41;8.20;99.90
61412;DHT22;47278;49.732;7.690;2023-04-12T01:19:52;8.30;99.90
61412;DHT22;47278;49.732;7.690;2023-04-12T01:27:38;8.30;99.90
61412;DHT22;47278;49.732;7.690;2023-04-12T01:30:07;8.20;99.90
61412;DHT22;47278;49.732;7.690;2023-04-12T01:32:34;8.20;99.90
61412;DHT22;47278;49.732;7.690;2023-04-12T01:35:03;8.20;99.90
61412;DHT22;47278;49.732;7.690;2023-04-12T01:37:31;8.20;99.90
61412;DHT22;47278;49.732;7.690;2023-04-12T01:39:57;8.20;99.90
61412;DHT22;47278;49.732;7.690;2023-04-12T01:42:24;8.10;99.90
61412;DHT22;47278;49.732;7.690;2023-04-12T01:44:50;8.20;99.90
61412;DHT22;47278;49.732;7.690;2023-04-12T01:47:15;8.10;99.90
61412;DHT22;47278;49.732;7.690;2023-04-12T01:50:18;8.20;99.90
61412;DHT22;47278;49.732;7.690;2023-04-12T01:52:51;8.20;99.90
61412;DHT22;47278;49.732;7.690;2023-04-12T01:55:20;8.30;99.90
61412;DHT22;47278;49.732;7.690;2023-04-12T01:57:47;8.30;99.90
61412;DHT22;47278;49.732;7.690;2023-04-12T02:00:15;8.20;99.90
61412;DHT22;47278;49.732;7.690;2023-04-12T02:02:41;8.20;99.90
61412;DHT22;47278;49.732;7.690;2023-04-12T02:05:08;8.30;99.90
61412;DHT22;47278;49.732;7.690;2023-04-12T02:07:34;8.30;99.90
61412;DHT22;47278;49.732;7.690;2023-04-12T02:10:01;8.30;99.90
61412;DHT22;47278;49.732;7.690;2023-04-12T02:12:27;8.30;99.90
61412;DHT22;47278;49.732;7.690;2023-04-12T02:14:53;8.30;99.90
61412;DHT22;47278;49.732;7.690;2023-04-12T02:17:19;8.20;99.90
61412;DHT22;47278;49.732;7.690;2023-04-12T02:19:45;8.30;99.90
61412;DHT22;47278;49.732;7.690;2023-04-12T02:22:11;8.30;99.90
61412;DHT22;47278;49.732;7.690;2023-04-12T02:24:37;8.20;99.90
61412;DHT22;47278;49.732;7.690;2023-04-12T02:27:03;8.20;99.90
61412;DHT22;47278;49.732;7.690;2023-04-12T02:29:30;8.20;99.90
61412;DHT22;47278;49.732;7.690;2023-04-12T02:31:56;8.30;99.90
61412;DHT22;47278;49.732;7.690;2023-04-12T02:34:21;8.30;99.90
61412;DHT22;47278;49.732;7.690;2023-04-12T02:36:48;7.80;99.90
61412;DHT22;47278;49.732;7.690;2023-04-12T02:39:14;8.20;99.90
61412;DHT22;47278;49.732;7.690;2023-04-12T02:41:43;8.20;99.90
61412;DHT22;47278;49.732;7.690;2023-04-12T02:44:09;8.20;99.90
61412;DHT22;47278;49.732;7.690;2023-04-12T02:46:35;8.20;99.90
61412;DHT22;47278;49.732;7.690;2023-04-12T02:49:00;8.20;99.90
61412;DHT22;47278;49.732;7.690;2023-04-12T02:51:26;8.20;99.90
61412;DHT22;47278;49.732;7.690;2023-04-12T02:53:52;8.20;99.90
61412;DHT22;47278;49.732;7.690;2023-04-12T02:56:18;8.10;99.90
61412;DHT22;47278;49.732;7.690;2023-04-12T02:58:46;8.10;99.90
61412;DHT22;47278;49.732;7.690;2023-04-12T03:01:12;8.20;99.90
61412;DHT22;47278;49.732;7.690;2023-04-12T03:03:39;8.20;99.90
61412;DHT22;47278;49.732;7.690;2023-04-12T03:06:05;8.10;99.90
61412;DHT22;47278;49.732;7.690;2023-04-12T03:08:33;8.10;99.90
61412;DHT22;47278;49.732;7.690;2023-04-12T03:10:59;8.10;99.90
61412;DHT22;47278;49.732;7.690;2023-04-12T03:13:24;8.10;99.90
61412;DHT22;47278;49.732;7.690;2023-04-12T03:15:56;8.10;99.90
61412;DHT22;47278;49.732;7.690;2023-04-12T03:18:22;8.10;99.90
61412;DHT22;47278;49.732;7.690;2023-04-12T03:20:48;8.10;99.90
61412;DHT22;47278;49.732;7.690;2023-04-12T03:23:14;8.20;99.90
61412;DHT22;47278;49.732;7.690;2023-04-12T03:25:40;8.10;99.90
61412;DHT22;47278;49.732;7.690;2023-04-12T03:28:07;8.10;99.90
61412;DHT22;47278;49.732;7.690;2023-04-12T03:30:32;8.20;99.90
61412;DHT22;47278;49.732;7.690;2023-04-12T03:32:58;8.10;99.90
61412;DHT22;47278;49.732;7.690;2023-04-12T03:35:24;8.10;99.90
61412;DHT22;47278;49.732;7.690;2023-04-12T03:37:49;8.10;99.90
61412;DHT22;47278;49.732;7.690;2023-04-12T03:40:16;8.00;99.90
61412;DHT22;47278;49.732;7.690;2023-04-12T03:42:41;8.00;99.90
61412;DHT22;47278;49.732;7.690;2023-04-12T03:45:07;8.00;99.90
61412;DHT22;47278;49.732;7.690;2023-04-12T03:47:33;8.00;99.90
61412;DHT22;47278;49.732;7.690;2023-04-12T03:50:03;8.00;99.90
61412;DHT22;47278;49.732;7.690;2023-04-12T03:52:32;7.90;99.90
61412;DHT22;47278;49.732;7.690;2023-04-12T03:54:58;7.90;99.90
61412;DHT22;47278;49.732;7.690;2023-04-12T03:57:25;8.00;99.90
61412;DHT22;47278;49.732;7.690;2023-04-12T03:59:51;8.00;99.90
61412;DHT22;47278;49.732;7.690;2023-04-12T04:02:17;8.00;99.90
61412;DHT22;47278;49.732;7.690;2023-04-12T04:04:43;8.10;99.90
61412;DHT22;47278;49.732;7.690;2023-04-12T04:07:09;8.20;99.90
61412;DHT22;47278;49.732;7.690;2023-04-12T04:09:35;8.00;99.90
61412;DHT22;47278;49.732;7.690;2023-04-12T04:12:01;8.00;99.90
61412;DHT22;47278;49.732;7.690;2023-04-12T04:14:27;8.00;99.90
61412;DHT22;47278;49.732;7.690;2023-04-12T04:16:52;8.00;99.90
61412;DHT22;47278;49.732;7.690;2023-04-12T04:19:20;8.10;99.90
61412;DHT22;47278;49.732;7.690;2023-04-12T04:21:46;8.10;99.90
61412;DHT22;47278;49.732;7.690;2023-04-12T04:24:12;8.10;99.90
61412;DHT22;47278;49.732;7.690;2023-04-12T04:26:38;8.10;99.90
61412;DHT22;47278;49.732;7.690;2023-04-12T04:29:04;8.10;99.90
61412;DHT22;47278;49.732;7.690;2023-04-12T04:31:31;8.00;99.90
61412;DHT22;47278;49.732;7.690;2023-04-12T04:34:01;8.10;99.90
61412;DHT22;47278;49.732;7.690;2023-04-12T04:36:36;8.00;99.90
61412;DHT22;47278;49.732;7.690;2023-04-12T04:39:03;8.10;99.90
61412;DHT22;47278;49.732;7.690;2023-04-12T04:41:31;8.10;99.90
61412;DHT22;47278;49.732;7.690;2023-04-12T04:44:06;8.10;99.90
61412;DHT22;47278;49.732;7.690;2023-04-12T04:46:36;8.10;99.90
61412;DHT22;47278;49.732;7.690;2023-04-12T04:49:02;8.00;99.90
61412;DHT22;47278;49.732;7.690;2023-04-12T04:51:28;8.10;99.90
61412;DHT22;47278;49.732;7.690;2023-04-12T04:53:55;8.10;99.90
61412;DHT22;47278;49.732;7.690;2023-04-12T04:56:21;8.10;99.90
61412;DHT22;47278;49.732;7.690;2023-04-12T04:58:49;8.10;99.90
61412;DHT22;47278;49.732;7.690;2023-04-12T05:01:15;8.10;99.90
61412;DHT22;47278;49.732;7.690;2023-04-12T05:03:42;8.10;99.90
61412;DHT22;47278;49.732;7.690;2023-04-12T05:06:10;8.10;99.90
61412;DHT22;47278;49.732;7.690;2023-04-12T05:08:36;8.10;99.90
61412;DHT22;47278;49.732;7.690;2023-04-12T05:11:02;8.10;99.90
61412;DHT22;47278;49.732;7.690;2023-04-12T05:13:27;8.00;99.90
61412;DHT22;47278;49.732;7.690;2023-04-12T05:15:53;8.00;99.90
61412;DHT22;47278;49.732;7.690;2023-04-12T05:18:19;8.10;99.90
61412;DHT22;47278;49.732;7.690;2023-04-12T05:20:45;8.10;99.90
61412;DHT22;47278;49.732;7.690;2023-04-12T05:23:13;8.10;99.90
61412;DHT22;47278;49.732;7.690;2023-04-12T05:25:43;8.10;99.90
61412;DHT22;47278;49.732;7.690;2023-04-12T05:28:12;8.10;99.90
61412;DHT22;47278;49.732;7.690;2023-04-12T05:30:39;8.10;99.90
61412;DHT22;47278;49.732;7.690;2023-04-12T05:33:04;8.00;99.90
61412;DHT22;47278;49.732;7.690;2023-04-12T05:35:30;8.10;99.90
61412;DHT22;47278;49.732;7.690;2023-04-12T05:37:56;8.10;99.90
61412;DHT22;47278;49.732;7.690;2023-04-12T05:40:22;8.10;99.90
61412;DHT22;47278;49.732;7.690;2023-04-12T05:42:47;8.10;99.90
61412;DHT22;47278;49.732;7.690;2023-04-12T05:45:13;8.10;99.90
61412;DHT22;47278;49.732;7.690;2023-04-12T05:47:38;8.10;99.90
61412;DHT22;47278;49.732;7.690;2023-04-12T05:50:05;8.10;99.90
61412;DHT22;47278;49.732;7.690;2023-04-12T05:52:31;8.10;99.90
61412;DHT22;47278;49.732;7.690;2023-04-12T05:54:57;8.20;99.90
61412;DHT22;47278;49.732;7.690;2023-04-12T05:57:24;8.20;99.90
61412;DHT22;47278;49.732;7.690;2023-04-12T05:59:49;8.10;99.90
61412;DHT22;47278;49.732;7.690;2023-04-12T06:02:15;8.20;99.90
61412;DHT22;47278;49.732;7.690;2023-04-12T06:04:41;8.20;99.90
61412;DHT22;47278;49.732;7.690;2023-04-12T06:07:07;8.20;99.90
61412;DHT22;47278;49.732;7.690;2023-04-12T06:09:34;8.30;99.90
61412;DHT22;47278;49.732;7.690;2023-04-12T06:12:00;8.30;99.90
61412;DHT22;47278;49.732;7.690;2023-04-12T06:14:27;8.30;99.90
61412;DHT22;47278;49.732;7.690;2023-04-12T06:16:53;8.30;99.90
61412;DHT22;47278;49.732;7.690;2023-04-12T06:19:19;8.30;99.90
61412;DHT22;47278;49.732;7.690;2023-04-12T06:21:44;8.30;99.90
61412;DHT22;47278;49.732;7.690;2023-04-12T06:24:11;8.40;99.90
61412;DHT22;47278;49.732;7.690;2023-04-12T06:26:37;8.40;99.90
61412;DHT22;47278;49.732;7.690;2023-04-12T06:29:02;8.40;99.90
61412;DHT22;47278;49.732;7.690;2023-04-12T06:31:28;8.40;99.90
61412;DHT22;47278;49.732;7.690;2023-04-12T06:33:54;8.50;99.90
61412;DHT22;47278;49.732;7.690;2023-04-12T06:36:19;8.50;99.90
61412;DHT22;47278;49.732;7.690;2023-04-12T06:38:45;8.60;99.90
61412;DHT22;47278;49.732;7.690;2023-04-12T06:41:11;8.70;99.90
61412;DHT22;47278;49.732;7.690;2023-04-12T06:43:37;8.80;99.90
61412;DHT22;47278;49.732;7.690;2023-04-12T06:46:02;8.90;99.90
61412;DHT22;47278;49.732;7.690;2023-04-12T06:48:28;9.00;99.90
61412;DHT22;47278;49.732;7.690;2023-04-12T06:50:54;9.10;99.90
61412;DHT22;47278;49.732;7.690;2023-04-12T06:53:20;9.10;99.90
61412;DHT22;47278;49.732;7.690;2023-04-12T06:55:46;9.20;99.90
61412;DHT22;47278;49.732;7.690;2023-04-12T06:58:12;9.20;99.90
61412;DHT22;47278;49.732;7.690;2023-04-12T07:00:38;9.30;99.90
61412;DHT22;47278;49.732;7.690;2023-04-12T07:03:03;9.20;99.90
61412;DHT22;47278;49.732;7.690;2023-04-12T07:05:29;9.20;99.90
61412;DHT22;47278;49.732;7.690;2023-04-12T07:07:55;9.30;99.90
61412;DHT22;47278;49.732;7.690;2023-04-12T07:10:20;9.30;99.90
61412;DHT22;47278;49.732;7.690;2023-04-12T07:12:47;9.30;99.90
61412;DHT22;47278;49.732;7.690;2023-04-12T07:15:13;9.50;99.90
61412;DHT22;47278;49.732;7.690;2023-04-12T07:17:39;9.50;99.90
61412;DHT22;47278;49.732;7.690;2023-04-12T07:20:05;9.80;99.90
61412;DHT22;47278;49.732;7.690;2023-04-12T07:22:31;9.60;99.90
61412;DHT22;47278;49.732;7.690;2023-04-12T07:24:57;9.60;99.90
61412;DHT22;47278;49.732;7.690;2023-04-12T07:27:22;9.60;99.90
61412;DHT22;47278;49.732;7.690;2023-04-12T07:29:50;9.60;99.90
61412;DHT22;47278;49.732;7.690;2023-04-12T07:32:17;9.60;99.90
61412;DHT22;47278;49.732;7.690;2023-04-12T07:34:42;9.60;99.90
61412;DHT22;47278;49.732;7.690;2023-04-12T07:37:08;9.60;99.90
61412;DHT22;47278;49.732;7.690;2023-04-12T07:39:33;9.60;99.90
61412;DHT22;47278;49.732;7.690;2023-04-12T07:42:00;9.60;99.90
61412;DHT22;47278;49.732;7.690;2023-04-12T07:44:26;9.60;99.90
61412;DHT22;47278;49.732;7.690;2023-04-12T07:46:51;9.60;99.90
61412;DHT22;47278;49.732;7.690;2023-04-12T07:49:17;9.60;99.90
61412;DHT22;47278;49.732;7.690;2023-04-12T07:51:43;9.70;99.90
61412;DHT22;47278;49.732;7.690;2023-04-12T07:54:09;9.70;99.90
61412;DHT22;47278;49.732;7.690;2023-04-12T07:56:35;9.70;99.90
61412;DHT22;47278;49.732;7.690;2023-04-12T07:59:00;9.70;99.90
61412;DHT22;47278;49.732;7.690;2023-04-12T08:01:26;9.80;99.90
61412;DHT22;47278;49.732;7.690;2023-04-12T08:03:52;9.80;99.90
61412;DHT22;47278;49.732;7.690;2023-04-12T08:06:18;9.80;99.90
61412;DHT22;47278;49.732;7.690;2023-04-12T08:08:43;9.80;99.90
61412;DHT22;47278;49.732;7.690;2023-04-12T08:11:09;9.90;99.90
61412;DHT22;47278;49.732;7.690;2023-04-12T08:13:35;9.90;99.90
61412;DHT22;47278;49.732;7.690;2023-04-12T08:16:01;9.80;99.90
61412;DHT22;47278;49.732;7.690;2023-04-12T08:18:27;9.90;99.90
61412;DHT22;47278;49.732;7.690;2023-04-12T08:20:54;10.00;99.90
61412;DHT22;47278;49.732;7.690;2023-04-12T08:23:20;10.00;99.90
61412;DHT22;47278;49.732;7.690;2023-04-12T08:25:46;10.10;99.90
61412;DHT22;47278;49.732;7.690;2023-04-12T08:28:12;10.10;99.90
61412;DHT22;47278;49.732;7.690;2023-04-12T08:30:38;10.10;99.90
61412;DHT22;47278;49.732;7.690;2023-04-12T08:33:04;10.20;99.90
61412;DHT22;47278;49.732;7.690;2023-04-12T08:35:30;10.20;99.90
61412;DHT22;47278;49.732;7.690;2023-04-12T08:37:56;10.30;99.90
61412;DHT22;47278;49.732;7.690;2023-04-12T08:40:21;10.40;99.90
61412;DHT22;47278;49.732;7.690;2023-04-12T08:42:47;10.50;99.90
61412;DHT22;47278;49.732;7.690;2023-04-12T08:45:13;10.50;99.90
61412;DHT22;47278;49.732;7.690;2023-04-12T08:47:40;10.50;99.90
61412;DHT22;47278;49.732;7.690;2023-04-12T08:50:07;10.50;99.90
61412;DHT22;47278;49.732;7.690;2023-04-12T08:52:34;10.60;99.90
61412;DHT22;47278;49.732;7.690;2023-04-12T08:55:07;10.50;99.90
61412;DHT22;47278;49.732;7.690;2023-04-12T08:57:40;10.60;99.90
61412;DHT22;47278;49.732;7.690;2023-04-12T09:00:07;10.70;99.90
61412;DHT22;47278;49.732;7.690;2023-04-12T09:02:37;10.80;99.90
61412;DHT22;47278;49.732;7.690;2023-04-12T09:05:04;10.70;99.90
61412;DHT22;47278;49.732;7.690;2023-04-12T09:07:30;10.70;99.90
61412;DHT22;47278;49.732;7.690;2023-04-12T09:09:57;10.80;99.90
61412;DHT22;47278;49.732;7.690;2023-04-12T09:12:23;10.80;99.90
61412;DHT22;47278;49.732;7.690;2023-04-12T09:15:08;10.80;99.90
61412;DHT22;47278;49.732;7.690;2023-04-12T09:17:34;11.00;99.90
61412;DHT22;47278;49.732;7.690;2023-04-12T09:20:21;11.10;99.90
61412;DHT22;47278;49.732;7.690;2023-04-12T09:22:48;11.00;99.90
61412;DHT22;47278;49.732;7.690;2023-04-12T09:25:14;11.10;99.90
61412;DHT22;47278;49.732;7.690;2023-04-12T09:27:51;11.20;99.90
61412;DHT22;47278;49.732;7.690;2023-04-12T09:30:19;11.30;99.90
61412;DHT22;47278;49.732;7.690;2023-04-12T09:32:45;11.20;99.90
61412;DHT22;47278;49.732;7.690;2023-04-12T09:35:11;11.30;99.90
61412;DHT22;47278;49.732;7.690;2023-04-12T09:37:36;11.30;99.90
61412;DHT22;47278;49.732;7.690;2023-04-12T09:40:05;11.40;99.90
61412;DHT22;47278;49.732;7.690;2023-04-12T09:42:53;11.50;99.90
61412;DHT22;47278;49.732;7.690;2023-04-12T09:45:23;11.50;99.90
61412;DHT22;47278;49.732;7.690;2023-04-12T09:47:50;11.70;99.90
61412;DHT22;47278;49.732;7.690;2023-04-12T09:50:24;11.70;99.90
61412;DHT22;47278;49.732;7.690;2023-04-12T09:52:57;11.90;99.90
61412;DHT22;47278;49.732;7.690;2023-04-12T09:55:28;12.10;99.90
61412;DHT22;47278;49.732;7.690;2023-04-12T09:57:56;12.00;99.90
61412;DHT22;47278;49.732;7.690;2023-04-12T10:00:24;12.00;99.90
61412;DHT22;47278;49.732;7.690;2023-04-12T10:02:52;12.30;99.90
61412;DHT22;47278;49.732;7.690;2023-04-12T10:05:20;12.20;99.90
61412;DHT22;47278;49.732;7.690;2023-04-12T10:07:47;14.20;99.90
61412;DHT22;47278;49.732;7.690;2023-04-12T10:10:16;12.80;99.90
61412;DHT22;47278;49.732;7.690;2023-04-12T10:12:44;14.20;99.90
61412;DHT22;47278;49.732;7.690;2023-04-12T10:15:12;12.70;99.90
61412;DHT22;47278;49.732;7.690;2023-04-12T10:17:44;12.60;99.90
61412;DHT22;47278;49.732;7.690;2023-04-12T10:20:15;12.60;99.90
61412;DHT22;47278;49.732;7.690;2023-04-12T10:22:51;12.50;99.90
61412;DHT22;47278;49.732;7.690;2023-04-12T10:25:22;12.50;99.90
61412;DHT22;47278;49.732;7.690;2023-04-12T10:27:50;12.70;99.90
61412;DHT22;47278;49.732;7.690;2023-04-12T10:30:23;12.60;99.90
61412;DHT22;47278;49.732;7.690;2023-04-12T10:33:09;12.50;99.90
61412;DHT22;47278;49.732;7.690;2023-04-12T10:35:57;12.50;99.90
61412;DHT22;47278;49.732;7.690;2023-04-12T10:38:25;12.40;99.90
61412;DHT22;47278;49.732;7.690;2023-04-12T10:41:17;12.10;99.90
61412;DHT22;47278;49.732;7.690;2023-04-12T10:43:50;12.20;99.90
61412;DHT22;47278;49.732;7.690;2023-04-12T10:49:13;12.20;99.90
61412;DHT22;47278;49.732;7.690;2023-04-12T10:51:40;12.20;99.90
61412;DHT22;47278;49.732;7.690;2023-04-12T10:56:54;12.30;99.90
61412;DHT22;47278;49.732;7.690;2023-04-12T10:59:21;12.30;99.90
61412;DHT22;47278;49.732;7.690;2023-04-12T11:04:31;12.50;99.90
61412;DHT22;47278;49.732;7.690;2023-04-12T11:07:02;12.60;99.90
61412;DHT22;47278;49.732;7.690;2023-04-12T11:09:41;12.70;99.90
61412;DHT22;47278;49.732;7.690;2023-04-12T11:14:36;12.90;99.90
61412;DHT22;47278;49.732;7.690;2023-04-12T11:19:37;13.20;99.90
61412;DHT22;47278;49.732;7.690;2023-04-12T11:22:03;13.20;99.90
61412;DHT22;47278;49.732;7.690;2023-04-12T11:24:30;13.40;99.90
61412;DHT22;47278;49.732;7.690;2023-04-12T11:26:56;13.10;99.90
61412;DHT22;47278;49.732;7.690;2023-04-12T11:29:25;13.30;99.90
61412;DHT22;47278;49.732;7.690;2023-04-12T11:31:52;13.80;99.90
61412;DHT22;47278;49.732;7.690;2023-04-12T11:34:18;13.60;99.90
61412;DHT22;47278;49.732;7.690;2023-04-12T11:36:52;13.80;99.90
61412;DHT22;47278;49.732;7.690;2023-04-12T11:39:18;13.80;99.90
61412;DHT22;47278;49.732;7.690;2023-04-12T11:41:44;13.60;99.90
61412;DHT22;47278;49.732;7.690;2023-04-12T11:44:12;13.50;99.90
61412;DHT22;47278;49.732;7.690;2023-04-12T11:46:38;13.60;99.90
61412;DHT22;47278;49.732;7.690;2023-04-12T11:49:03;13.50;99.90
61412;DHT22;47278;49.732;7.690;2023-04-12T11:51:30;13.50;99.90
61412;DHT22;47278;49.732;7.690;2023-04-12T11:53:57;13.30;99.90
61412;DHT22;47278;49.732;7.690;2023-04-12T11:56:24;13.40;99.90
61412;DHT22;47278;49.732;7.690;2023-04-12T11:58:50;13.30;99.90
61412;DHT22;47278;49.732;7.690;2023-04-12T12:01:18;13.30;99.90
61412;DHT22;47278;49.732;7.690;2023-04-12T12:03:45;13.10;99.90
61412;DHT22;47278;49.732;7.690;2023-04-12T12:06:11;14.30;99.90
61412;DHT22;47278;49.732;7.690;2023-04-12T12:08:38;12.70;99.90
61412;DHT22;47278;49.732;7.690;2023-04-12T12:11:04;12.60;99.90
61412;DHT22;47278;49.732;7.690;2023-04-12T12:13:50;12.60;99.90
61412;DHT22;47278;49.732;7.690;2023-04-12T12:16:16;12.60;99.90
61412;DHT22;47278;49.732;7.690;2023-04-12T12:18:44;12.60;99.90
61412;DHT22;47278;49.732;7.690;2023-04-12T12:21:12;12.60;99.90
61412;DHT22;47278;49.732;7.690;2023-04-12T12:23:40;12.70;99.90
61412;DHT22;47278;49.732;7.690;2023-04-12T12:26:06;12.70;99.90
61412;DHT22;47278;49.732;7.690;2023-04-12T12:28:39;12.50;99.90
61412;DHT22;47278;49.732;7.690;2023-04-12T12:31:05;12.50;99.90
61412;DHT22;47278;49.732;7.690;2023-04-12T12:33:38;12.50;99.90
61412;DHT22;47278;49.732;7.690;2023-04-12T12:36:08;12.20;99.90
61412;DHT22;47278;49.732;7.690;2023-04-12T12:38:37;12.20;99.90
61412;DHT22;47278;49.732;7.690;2023-04-12T12:41:21;12.00;99.90
61412;DHT22;47278;49.732;7.690;2023-04-12T12:43:49;11.90;99.90
61412;DHT22;47278;49.732;7.690;2023-04-12T12:46:16;11.90;99.90
61412;DHT22;47278;49.732;7.690;2023-04-12T12:48:45;11.80;99.90
61412;DHT22;47278;49.732;7.690;2023-04-12T12:51:13;11.70;99.90
61412;DHT22;47278;49.732;7.690;2023-04-12T12:53:42;11.80;99.90
61412;DHT22;47278;49.732;7.690;2023-04-12T12:56:08;11.80;99.90
61412;DHT22;47278;49.732;7.690;2023-04-12T12:58:35;11.90;99.90
61412;DHT22;47278;49.732;7.690;2023-04-12T13:01:02;12.00;99.90
61412;DHT22;47278;49.732;7.690;2023-04-12T13:03:29;12.20;99.90
61412;DHT22;47278;49.732;7.690;2023-04-12T13:05:55;12.20;99.90
61412;DHT22;47278;49.732;7.690;2023-04-12T13:08:21;12.40;99.90
61412;DHT22;47278;49.732;7.690;2023-04-12T13:10:47;12.40;99.90
61412;DHT22;47278;49.732;7.690;2023-04-12T13:13:13;12.50;99.90
61412;DHT22;47278;49.732;7.690;2023-04-12T13:15:39;12.60;99.90
61412;DHT22;47278;49.732;7.690;2023-04-12T13:18:05;12.60;99.90
61412;DHT22;47278;49.732;7.690;2023-04-12T13:20:32;12.80;99.90
61412;DHT22;47278;49.732;7.690;2023-04-12T13:22:58;13.00;99.90
61412;DHT22;47278;49.732;7.690;2023-04-12T13:25:25;13.10;99.90
61412;DHT22;47278;49.732;7.690;2023-04-12T13:27:51;14.20;99.90
61412;DHT22;47278;49.732;7.690;2023-04-12T13:30:18;14.00;99.90
61412;DHT22;47278;49.732;7.690;2023-04-12T13:32:44;13.70;99.90
61412;DHT22;47278;49.732;7.690;2023-04-12T13:35:10;13.50;99.90
61412;DHT22;47278;49.732;7.690;2023-04-12T13:37:36;13.20;99.90
61412;DHT22;47278;49.732;7.690;2023-04-12T13:40:02;13.20;99.90
61412;DHT22;47278;49.732;7.690;2023-04-12T13:42:28;14.70;99.90
61412;DHT22;47278;49.732;7.690;2023-04-12T13:44:54;12.70;99.90
61412;DHT22;47278;49.732;7.690;2023-04-12T13:47:21;12.70;99.90
61412;DHT22;47278;49.732;7.690;2023-04-12T13:49:47;12.50;99.90
61412;DHT22;47278;49.732;7.690;2023-04-12T13:52:13;12.40;99.90
61412;DHT22;47278;49.732;7.690;2023-04-12T13:54:38;12.30;99.90
61412;DHT22;47278;49.732;7.690;2023-04-12T13:57:05;12.30;99.90
61412;DHT22;47278;49.732;7.690;2023-04-12T13:59:32;12.30;99.90
61412;DHT22;47278;49.732;7.690;2023-04-12T14:01:58;12.20;99.90
61412;DHT22;47278;49.732;7.690;2023-04-12T14:04:27;12.10;99.90
61412;DHT22;47278;49.732;7.690;2023-04-12T14:06:53;12.20;99.90
61412;DHT22;47278;49.732;7.690;2023-04-12T14:09:26;12.00;99.90
61412;DHT22;47278;49.732;7.690;2023-04-12T14:11:53;11.90;99.90
61412;DHT22;47278;49.732;7.690;2023-04-12T14:14:23;11.80;99.90
61412;DHT22;47278;49.732;7.690;2023-04-12T14:16:50;11.60;99.90
61412;DHT22;47278;49.732;7.690;2023-04-12T14:19:18;11.70;99.90
61412;DHT22;47278;49.732;7.690;2023-04-12T14:21:44;11.90;99.90
61412;DHT22;47278;49.732;7.690;2023-04-12T14:24:09;11.80;99.90
61412;DHT22;47278;49.732;7.690;2023-04-12T14:26:35;11.90;99.90
61412;DHT22;47278;49.732;7.690;2023-04-12T14:29:04;11.80;99.90
61412;DHT22;47278;49.732;7.690;2023-04-12T14:31:30;11.70;99.90
61412;DHT22;47278;49.732;7.690;2023-04-12T14:33:56;11.50;99.90
61412;DHT22;47278;49.732;7.690;2023-04-12T14:36:22;11.40;99.90
61412;DHT22;47278;49.732;7.690;2023-04-12T14:38:47;11.40;99.90
61412;DHT22;47278;49.732;7.690;2023-04-12T14:41:14;11.60;99.90
61412;DHT22;47278;49.732;7.690;2023-04-12T14:43:41;11.90;99.90
61412;DHT22;47278;49.732;7.690;2023-04-12T14:46:07;9.70;99.90
61412;DHT22;47278;49.732;7.690;2023-04-12T14:48:32;11.80;99.90
61412;DHT22;47278;49.732;7.690;2023-04-12T14:50:58;11.70;99.90
61412;DHT22;47278;49.732;7.690;2023-04-12T14:53:24;11.90;99.90
61412;DHT22;47278;49.732;7.690;2023-04-12T14:55:50;12.10;99.90
61412;DHT22;47278;49.732;7.690;2023-04-12T14:58:15;13.10;99.90
61412;DHT22;47278;49.732;7.690;2023-04-12T15:00:41;14.20;99.90
61412;DHT22;47278;49.732;7.690;2023-04-12T15:03:07;14.40;99.90
61412;DHT22;47278;49.732;7.690;2023-04-12T15:05:33;15.10;99.90
61412;DHT22;47278;49.732;7.690;2023-04-12T15:07:59;16.60;99.90
61412;DHT22;47278;49.732;7.690;2023-04-12T15:10:25;19.10;99.90
61412;DHT22;47278;49.732;7.690;2023-04-12T15:12:50;19.80;99.90
61412;DHT22;47278;49.732;7.690;2023-04-12T15:15:17;19.80;99.90
61412;DHT22;47278;49.732;7.690;2023-04-12T15:17:42;19.40;99.90
61412;DHT22;47278;49.732;7.690;2023-04-12T15:20:09;18.50;99.90
61412;DHT22;47278;49.732;7.690;2023-04-12T15:22:41;18.60;99.90
61412;DHT22;47278;49.732;7.690;2023-04-12T15:25:07;20.30;99.90
61412;DHT22;47278;49.732;7.690;2023-04-12T15:27:34;20.20;99.90
61412;DHT22;47278;49.732;7.690;2023-04-12T15:30:00;19.10;99.90
61412;DHT22;47278;49.732;7.690;2023-04-12T15:32:27;19.10;99.90
61412;DHT22;47278;49.732;7.690;2023-04-12T15:34:54;19.90;99.90
61412;DHT22;47278;49.732;7.690;2023-04-12T15:37:22;18.90;99.90
61412;DHT22;47278;49.732;7.690;2023-04-12T15:39:48;20.40;99.90
61412;DHT22;47278;49.732;7.690;2023-04-12T15:42:15;21.30;99.90
61412;DHT22;47278;49.732;7.690;2023-04-12T15:44:41;21.50;99.90
61412;DHT22;47278;49.732;7.690;2023-04-12T15:47:07;21.60;99.90
61412;DHT22;47278;49.732;7.690;2023-04-12T15:49:33;22.00;99.90
61412;DHT22;47278;49.732;7.690;2023-04-12T15:51:59;21.40;99.90
61412;DHT22;47278;49.732;7.690;2023-04-12T15:54:25;20.00;99.90
61412;DHT22;47278;49.732;7.690;2023-04-12T15:56:51;17.20;99.90
61412;DHT22;47278;49.732;7.690;2023-04-12T15:59:17;17.10;99.90
61412;DHT22;47278;49.732;7.690;2023-04-12T16:01:43;17.80;99.90
61412;DHT22;47278;49.732;7.690;2023-04-12T16:04:09;14.90;99.90
61412;DHT22;47278;49.732;7.690;2023-04-12T16:06:35;16.10;99.90